createdAt,value
2022-12-23T00:00:55.946Z,50.10
2022-12-23T00:03:49.508Z,50.10
2022-12-23T00:06:43.486Z,50.10
2022-12-23T00:09:36.174Z,50.20
2022-12-23T00:12:46.903Z,50.20
2022-12-23T00:15:40.289Z,50.20
2022-12-23T00:18:33.897Z,50.20
2022-12-23T00:21:27.235Z,50.10
2022-12-23T00:24:21.596Z,50.20
2022-12-23T00:27:14.479Z,50.10
2022-12-23T00:30:11.293Z,50.20
2022-12-23T00:33:05.712Z,50.20
2022-12-23T00:35:59.223Z,50.10
2022-12-23T00:39:10.317Z,50.20
2022-12-23T00:42:22.129Z,50.10
2022-12-23T00:45:18.477Z,50.70
2022-12-23T00:48:31.278Z,50.20
2022-12-23T00:51:24.320Z,50.10
2022-12-23T00:54:18.610Z,50.20
2022-12-23T00:57:12.928Z,50.20
2022-12-23T01:00:08.313Z,50.20
2022-12-23T01:03:18.807Z,50.20
2022-12-23T01:06:12.169Z,50.20
2022-12-23T01:09:05.585Z,50.20
2022-12-23T01:11:58.728Z,50.20
2022-12-23T01:14:52.659Z,50.20
2022-12-23T01:17:45.203Z,50.20
2022-12-23T01:20:38.912Z,50.20
2022-12-23T01:23:32.461Z,50.20
2022-12-23T01:26:25.417Z,50.20
2022-12-23T01:29:18.563Z,50.20
2022-12-23T01:32:13.099Z,50.20
2022-12-23T01:35:06.850Z,50.20
2022-12-23T01:38:00.037Z,50.10
2022-12-23T01:40:53.589Z,50.20
2022-12-23T01:43:47.457Z,50.20
2022-12-23T01:46:40.764Z,50.20
2022-12-23T01:49:34.957Z,50.20
2022-12-23T01:52:29.695Z,50.20
2022-12-23T01:55:26.724Z,50.20
2022-12-23T01:58:24.968Z,50.20
2022-12-23T02:01:36.407Z,50.20
2022-12-23T02:04:29.614Z,50.20
2022-12-23T02:07:41.675Z,50.20
2022-12-23T02:10:52.067Z,50.20
2022-12-23T02:14:06.541Z,50.20
2022-12-23T02:17:07.407Z,50.20
2022-12-23T02:20:35.190Z,50.20
2022-12-23T02:24:07.835Z,50.20
2022-12-23T02:27:11.283Z,50.20
2022-12-23T02:30:23.015Z,50.20
2022-12-23T02:33:39.993Z,50.20
2022-12-23T02:36:40.174Z,50.20
2022-12-23T02:39:40.416Z,50.20
2022-12-23T02:42:39.746Z,50.20
2022-12-23T02:45:38.934Z,50.20
2022-12-23T02:48:37.145Z,50.20
2022-12-23T02:51:34.538Z,50.20
2022-12-23T02:54:31.641Z,50.20
2022-12-23T02:57:30.452Z,50.20
2022-12-23T03:00:24.507Z,50.30
2022-12-23T03:03:21.161Z,50.20
2022-12-23T03:06:22.366Z,50.20
2022-12-23T03:09:29.293Z,50.30
2022-12-23T03:12:33.725Z,50.30
2022-12-23T03:15:35.708Z,50.30
2022-12-23T03:18:40.778Z,50.20
2022-12-23T03:21:38.669Z,50.20
2022-12-23T03:24:40.651Z,50.20
2022-12-23T03:27:40.559Z,50.20
2022-12-23T03:30:35.568Z,50.20
2022-12-23T03:33:32.684Z,50.20
2022-12-23T03:36:29.733Z,50.20
2022-12-23T03:39:28.519Z,50.20
2022-12-23T03:42:25.949Z,50.20
2022-12-23T03:45:41.649Z,50.20
2022-12-23T03:48:40.740Z,50.20
2022-12-23T03:51:40.163Z,50.30
2022-12-23T03:54:40.735Z,50.20
2022-12-23T03:57:39.681Z,50.20
2022-12-23T04:00:37.353Z,50.20
2022-12-23T04:03:37.621Z,50.20
2022-12-23T04:06:39.599Z,50.30
2022-12-23T04:09:32.208Z,50.20
2022-12-23T04:12:26.694Z,50.30
2022-12-23T04:15:23.571Z,50.30
2022-12-23T04:18:17.195Z,50.30
2022-12-23T04:21:10.468Z,50.30
2022-12-23T04:24:04.915Z,50.20
2022-12-23T04:26:57.380Z,50.20
2022-12-23T04:29:50.929Z,50.30
2022-12-23T04:32:43.777Z,50.30
2022-12-23T04:35:36.645Z,50.20
2022-12-23T04:38:29.630Z,50.30
2022-12-23T04:41:24.587Z,50.30
2022-12-23T04:44:17.823Z,50.30
2022-12-23T04:47:10.782Z,50.30
2022-12-23T04:50:03.816Z,50.30
2022-12-23T04:52:56.741Z,50.30
2022-12-23T04:55:51.451Z,50.20
2022-12-23T04:58:45.825Z,51.00
2022-12-23T05:01:38.930Z,50.30
2022-12-23T05:04:32.654Z,50.20
2022-12-23T05:07:25.298Z,50.30
2022-12-23T05:10:18.831Z,50.20
2022-12-23T05:13:11.661Z,50.30
2022-12-23T05:16:07.171Z,50.30
2022-12-23T05:19:00.684Z,50.30
2022-12-23T05:21:53.485Z,50.20
2022-12-23T05:24:46.473Z,50.30
2022-12-23T05:27:40.118Z,50.30
2022-12-23T05:30:33.838Z,50.30
2022-12-23T05:33:28.558Z,50.30
2022-12-23T05:36:21.793Z,50.30
2022-12-23T05:39:14.878Z,50.30
2022-12-23T05:42:07.704Z,50.30
2022-12-23T05:45:01.310Z,50.30
2022-12-23T05:47:54.780Z,50.30
2022-12-23T05:50:52.169Z,50.30
2022-12-23T05:53:45.421Z,50.20
2022-12-23T05:56:38.862Z,50.30
2022-12-23T05:59:31.978Z,50.30
2022-12-23T06:02:25.949Z,50.30
2022-12-23T06:05:19.767Z,51.00
2022-12-23T06:08:13.982Z,50.30
2022-12-23T06:11:06.819Z,50.30
2022-12-23T06:13:59.440Z,50.30
2022-12-23T06:16:52.472Z,50.30
2022-12-23T06:19:47.469Z,50.30
2022-12-23T06:22:40.626Z,50.30
2022-12-23T06:25:34.950Z,50.30
2022-12-23T06:28:29.147Z,50.30
2022-12-23T06:31:23.295Z,50.30
2022-12-23T06:34:16.496Z,50.30
2022-12-23T06:37:09.370Z,50.30
2022-12-23T06:40:02.518Z,50.30
2022-12-23T06:42:57.163Z,50.30
2022-12-23T06:45:50.832Z,50.30
2022-12-23T06:48:44.006Z,50.30
2022-12-23T06:51:36.744Z,50.40
2022-12-23T06:54:29.941Z,50.30
2022-12-23T06:57:23.098Z,50.30
2022-12-23T07:00:20.066Z,50.30
2022-12-23T07:03:13.748Z,50.30
2022-12-23T07:06:07.585Z,50.30
2022-12-23T07:09:01.007Z,50.30
2022-12-23T07:11:53.689Z,50.30
2022-12-23T07:14:46.489Z,51.00
2022-12-23T07:17:40.865Z,50.30
2022-12-23T07:20:33.695Z,50.30
2022-12-23T07:23:26.666Z,50.30
2022-12-23T07:26:19.619Z,50.30
2022-12-23T07:29:12.894Z,50.30
2022-12-23T07:32:06.222Z,50.30
2022-12-23T07:35:00.730Z,50.30
2022-12-23T07:37:55.307Z,50.30
2022-12-23T07:40:50.151Z,50.30
2022-12-23T07:43:43.774Z,50.40
2022-12-23T07:46:37.221Z,50.30
2022-12-23T07:49:30.799Z,50.30
2022-12-23T07:52:25.540Z,50.30
2022-12-23T07:55:19.045Z,50.30
2022-12-23T07:58:11.637Z,50.30
2022-12-23T08:01:07.825Z,50.30
2022-12-23T08:04:00.971Z,50.30
2022-12-23T08:06:53.718Z,50.30
2022-12-23T08:09:47.874Z,50.40
2022-12-23T08:12:40.851Z,50.30
2022-12-23T08:15:33.667Z,50.30
2022-12-23T08:18:27.749Z,50.30
2022-12-23T08:21:21.050Z,50.30
2022-12-23T08:24:13.750Z,50.40
2022-12-23T08:27:07.971Z,50.30
2022-12-23T08:30:00.666Z,50.30
2022-12-23T08:32:54.460Z,50.30
2022-12-23T08:35:47.768Z,50.40
2022-12-23T08:38:41.104Z,50.30
2022-12-23T08:41:38.282Z,50.40
2022-12-23T08:44:33.660Z,50.30
2022-12-23T08:47:26.573Z,50.30
2022-12-23T08:50:20.137Z,50.30
2022-12-23T08:53:13.630Z,50.30
2022-12-23T08:56:09.377Z,50.30
2022-12-23T08:59:03.404Z,50.50
2022-12-23T09:01:59.742Z,50.30
2022-12-23T09:04:52.914Z,50.30
2022-12-23T09:07:45.682Z,50.30
2022-12-23T09:10:42.630Z,50.30
2022-12-23T09:13:36.200Z,50.30
2022-12-23T09:16:30.247Z,50.30
2022-12-23T09:19:24.921Z,50.30
2022-12-23T09:22:17.790Z,50.30
2022-12-23T09:25:11.341Z,50.30
2022-12-23T09:28:05.066Z,50.30
2022-12-23T09:30:57.992Z,50.30
2022-12-23T09:33:52.810Z,50.30
2022-12-23T09:36:53.368Z,50.30
2022-12-23T09:39:47.836Z,50.30
2022-12-23T09:42:51.575Z,50.40
2022-12-23T09:46:00.097Z,50.30
2022-12-23T09:49:03.913Z,50.30
2022-12-23T09:52:03.691Z,50.30
2022-12-23T09:54:57.112Z,50.30
2022-12-23T09:57:56.624Z,50.30
2022-12-23T10:01:01.575Z,50.30
2022-12-23T10:04:31.144Z,50.30
2022-12-23T10:07:36.075Z,50.40
2022-12-23T10:10:36.034Z,50.30
2022-12-23T10:13:35.194Z,50.30
2022-12-23T10:16:33.098Z,50.40
2022-12-23T10:19:29.688Z,50.30
2022-12-23T10:22:28.047Z,50.30
2022-12-23T10:25:29.851Z,50.40
2022-12-23T10:28:24.195Z,50.40
2022-12-23T10:31:40.355Z,50.40
2022-12-23T10:34:42.791Z,50.40
2022-12-23T10:37:40.118Z,50.30
2022-12-23T10:40:42.738Z,50.30
2022-12-23T10:43:47.993Z,50.30
2022-12-23T10:46:50.422Z,50.40
2022-12-23T10:49:54.757Z,50.30
2022-12-23T10:52:49.834Z,50.40
2022-12-23T10:55:46.236Z,50.40
2022-12-23T10:58:43.058Z,50.40
2022-12-23T11:01:36.463Z,50.40
2022-12-23T11:04:34.617Z,50.30
2022-12-23T11:07:46.177Z,50.40
2022-12-23T11:10:40.904Z,50.30
2022-12-23T11:13:38.720Z,50.30
2022-12-23T11:16:31.966Z,50.30
2022-12-23T11:19:24.998Z,50.40
2022-12-23T11:22:24.846Z,50.40
2022-12-23T11:25:28.424Z,50.40
2022-12-23T11:28:22.577Z,50.40
2022-12-23T11:31:25.997Z,52.10
2022-12-23T11:34:21.102Z,52.00
2022-12-23T11:37:26.779Z,51.60
2022-12-23T11:40:25.441Z,50.90
2022-12-23T11:43:21.045Z,50.80
2022-12-23T11:46:26.073Z,50.80
2022-12-23T11:49:20.681Z,50.80
2022-12-23T11:52:18.125Z,50.70
2022-12-23T11:55:25.317Z,50.70
2022-12-23T11:58:23.039Z,50.70
2022-12-23T12:01:20.206Z,50.70
2022-12-23T12:04:23.392Z,50.60
2022-12-23T12:07:20.356Z,50.60
2022-12-23T12:10:19.680Z,50.60
2022-12-23T12:13:24.762Z,50.60
2022-12-23T12:16:40.810Z,50.60
2022-12-23T12:19:37.368Z,50.60
2022-12-23T12:22:37.146Z,50.60
2022-12-23T12:25:42.346Z,50.60
2022-12-23T12:28:39.311Z,50.60
2022-12-23T12:31:40.556Z,50.60
2022-12-23T12:34:43.471Z,50.60
2022-12-23T12:37:41.923Z,50.60
2022-12-23T12:40:40.045Z,50.60
2022-12-23T12:43:36.006Z,50.60
2022-12-23T12:46:35.145Z,50.60
2022-12-23T12:49:36.121Z,50.60
2022-12-23T12:52:36.335Z,50.60
2022-12-23T12:55:33.542Z,50.50
2022-12-23T12:58:27.305Z,51.20
2022-12-23T13:01:37.753Z,50.60
2022-12-23T13:04:49.453Z,50.60
2022-12-23T13:07:55.204Z,50.50
2022-12-23T13:10:52.049Z,50.60
2022-12-23T13:13:54.897Z,50.50
2022-12-23T13:16:55.250Z,50.60
2022-12-23T13:19:52.723Z,50.50
2022-12-23T13:22:49.946Z,50.50
2022-12-23T13:25:45.931Z,50.50
2022-12-23T13:28:50.925Z,50.50
2022-12-23T13:31:55.108Z,50.50
2022-12-23T13:34:56.256Z,50.50
2022-12-23T13:37:57.386Z,50.50
2022-12-23T13:41:02.122Z,50.50
2022-12-23T13:43:58.428Z,50.50
2022-12-23T13:47:05.767Z,50.50
2022-12-23T13:50:05.617Z,50.50
2022-12-23T13:53:15.942Z,50.50
2022-12-23T13:56:19.445Z,50.60
2022-12-23T13:59:15.402Z,50.50
2022-12-23T14:02:43.714Z,50.50
2022-12-23T14:05:38.828Z,50.50
2022-12-23T14:08:40.212Z,50.50
2022-12-23T14:11:34.346Z,50.50
2022-12-23T14:14:28.292Z,50.50
2022-12-23T14:17:26.022Z,50.50
2022-12-23T14:20:31.851Z,50.50
2022-12-23T14:23:40.430Z,50.60
2022-12-23T14:27:00.880Z,50.60
2022-12-23T14:30:06.289Z,50.50
2022-12-23T14:33:02.674Z,50.50
2022-12-23T14:36:13.973Z,50.50
2022-12-23T14:39:31.751Z,50.50
2022-12-23T14:42:36.628Z,50.60
2022-12-23T14:45:35.945Z,50.50
2022-12-23T14:52:50.955Z,50.60
2022-12-23T14:55:46.247Z,50.60
2022-12-23T14:59:06.761Z,50.50
2022-12-23T15:02:03.055Z,50.60
2022-12-23T15:04:57.718Z,50.50
2022-12-23T15:07:55.959Z,50.50
2022-12-23T15:10:49.419Z,50.60
2022-12-23T15:13:43.692Z,50.60
2022-12-23T15:16:44.756Z,50.60
2022-12-23T15:19:46.025Z,50.50
2022-12-23T15:22:40.624Z,50.50
2022-12-23T15:25:40.371Z,50.50
2022-12-23T15:28:39.036Z,50.50
2022-12-23T15:31:35.965Z,50.60
2022-12-23T15:34:33.577Z,50.50
2022-12-23T15:37:30.315Z,50.60
2022-12-23T15:40:26.915Z,50.60
2022-12-23T15:43:23.847Z,50.60
2022-12-23T15:46:24.979Z,50.60
2022-12-23T15:49:22.529Z,50.50
2022-12-23T15:52:20.388Z,50.60
2022-12-23T15:55:16.405Z,50.60
2022-12-23T15:58:09.312Z,50.60
2022-12-23T16:01:03.644Z,50.50
2022-12-23T16:04:00.745Z,50.50
2022-12-23T16:06:54.689Z,50.50
2022-12-23T16:09:48.215Z,50.60
2022-12-23T16:12:42.344Z,50.50
2022-12-23T16:15:35.056Z,50.50
2022-12-23T16:18:31.670Z,50.60
2022-12-23T16:21:29.164Z,50.60
2022-12-23T16:24:22.245Z,50.60
2022-12-23T16:27:18.006Z,50.60
2022-12-23T16:30:16.886Z,50.60
2022-12-23T16:33:28.765Z,50.60
2022-12-23T16:36:34.479Z,50.60
2022-12-23T16:39:28.459Z,50.60
2022-12-23T16:42:21.349Z,50.60
2022-12-23T16:45:14.176Z,50.60
2022-12-23T16:48:18.219Z,50.60
2022-12-23T16:51:16.480Z,50.60
2022-12-23T16:54:15.187Z,50.60
2022-12-23T16:57:09.454Z,50.60
2022-12-23T17:00:02.270Z,50.60
2022-12-23T17:02:56.180Z,50.60
2022-12-23T17:05:49.379Z,50.60
2022-12-23T17:08:42.282Z,50.60
2022-12-23T17:11:41.289Z,50.60
2022-12-23T17:14:35.395Z,50.60
2022-12-23T17:17:28.038Z,50.60
2022-12-23T17:20:22.472Z,50.60
2022-12-23T17:23:26.851Z,50.60
2022-12-23T17:26:20.375Z,50.60
2022-12-23T17:29:14.783Z,50.60
2022-12-23T17:32:12.491Z,50.60
2022-12-23T17:35:05.401Z,50.60
2022-12-23T17:37:58.270Z,50.70
2022-12-23T17:40:51.948Z,50.60
2022-12-23T17:43:45.229Z,50.70
2022-12-23T17:46:39.765Z,50.60
2022-12-23T17:49:33.271Z,50.60
2022-12-23T17:52:26.784Z,50.70
2022-12-23T17:55:22.613Z,50.70
2022-12-23T17:58:15.983Z,50.60
2022-12-23T18:01:17.381Z,50.70
2022-12-23T18:04:11.338Z,50.60
2022-12-23T18:07:04.166Z,50.70
2022-12-23T18:09:57.295Z,50.60
2022-12-23T18:12:53.968Z,50.60
2022-12-23T18:15:47.716Z,50.60
2022-12-23T18:18:46.666Z,50.60
2022-12-23T18:21:41.489Z,50.60
2022-12-23T18:24:34.452Z,50.70
2022-12-23T18:27:27.391Z,50.70
2022-12-23T18:30:21.539Z,50.70
2022-12-23T18:33:14.582Z,50.70
2022-12-23T18:36:08.239Z,50.60
2022-12-23T18:39:02.756Z,50.60
2022-12-23T18:41:56.570Z,50.70
2022-12-23T18:44:49.590Z,51.20
2022-12-23T18:47:42.368Z,50.60
2022-12-23T18:50:37.098Z,50.60
2022-12-23T18:53:30.433Z,50.60
2022-12-23T18:56:24.577Z,50.70
2022-12-23T18:59:24.039Z,50.70
2022-12-23T19:02:22.151Z,50.60
2022-12-23T19:05:21.700Z,50.70
2022-12-23T19:08:18.955Z,50.60
2022-12-23T19:11:17.071Z,50.70
2022-12-23T19:14:12.517Z,50.70
2022-12-23T19:17:05.502Z,50.60
2022-12-23T19:19:58.217Z,50.70
2022-12-23T19:22:50.985Z,50.70
2022-12-23T19:25:52.538Z,50.70
2022-12-23T19:28:49.236Z,50.70
2022-12-23T19:31:43.631Z,50.70
2022-12-23T19:34:36.274Z,50.70
2022-12-23T19:37:29.385Z,50.70
2022-12-23T19:40:22.337Z,50.60
2022-12-23T19:43:15.347Z,50.70
2022-12-23T19:46:10.259Z,50.70
2022-12-23T19:49:04.426Z,50.60
2022-12-23T19:51:57.556Z,50.70
2022-12-23T19:54:50.356Z,50.70
2022-12-23T19:57:43.553Z,50.70
2022-12-23T20:00:36.364Z,50.70
2022-12-23T20:03:31.056Z,50.70
2022-12-23T20:06:28.033Z,50.60
2022-12-23T20:09:21.064Z,50.70
2022-12-23T20:12:14.450Z,50.70
2022-12-23T20:15:08.191Z,50.70
2022-12-23T20:18:01.400Z,50.70
2022-12-23T20:20:54.357Z,50.70
2022-12-23T20:23:48.890Z,50.70
2022-12-23T20:26:43.320Z,50.70
2022-12-23T20:29:36.135Z,50.70
2022-12-23T20:32:29.475Z,50.70
2022-12-23T20:35:22.525Z,50.70
2022-12-23T20:38:15.214Z,50.70
2022-12-23T20:41:11.099Z,50.70
2022-12-23T20:47:17.577Z,50.70
2022-12-23T20:50:10.918Z,50.70
2022-12-23T20:53:04.454Z,50.70
2022-12-23T20:56:00.739Z,50.70
2022-12-23T20:58:56.073Z,50.60
2022-12-23T21:01:49.744Z,50.70
2022-12-23T21:04:44.009Z,50.70
2022-12-23T21:07:37.784Z,50.70
2022-12-23T21:10:31.630Z,50.60
2022-12-23T21:13:24.588Z,50.60
2022-12-23T21:16:19.133Z,50.70
2022-12-23T21:19:15.928Z,50.60
2022-12-23T21:22:09.370Z,50.60
2022-12-23T21:25:02.539Z,50.60
2022-12-23T21:27:55.434Z,50.70
2022-12-23T21:30:48.574Z,50.60
2022-12-23T21:33:44.537Z,50.70
2022-12-23T21:36:39.513Z,50.60
2022-12-23T21:39:32.654Z,50.60
2022-12-23T21:42:25.521Z,50.60
2022-12-23T21:45:18.500Z,50.60
2022-12-23T21:48:11.476Z,50.70
2022-12-23T21:51:07.865Z,50.60
2022-12-23T21:54:01.851Z,51.20
2022-12-23T21:56:55.123Z,50.60
2022-12-23T21:59:49.396Z,50.60
2022-12-23T22:02:42.255Z,50.70
2022-12-23T22:05:35.224Z,50.60
2022-12-23T22:08:29.701Z,50.60
2022-12-23T22:11:24.231Z,50.70
2022-12-23T22:14:19.023Z,50.60
2022-12-23T22:17:12.111Z,50.60
2022-12-23T22:20:05.990Z,50.60
2022-12-23T22:22:59.100Z,50.60
2022-12-23T22:25:57.205Z,50.60
2022-12-23T22:28:50.858Z,50.60
2022-12-23T22:31:46.834Z,50.60
2022-12-23T22:34:40.532Z,50.60
2022-12-23T22:37:33.251Z,50.60
2022-12-23T22:40:26.349Z,50.60
2022-12-23T22:43:21.060Z,50.60
2022-12-23T22:46:14.876Z,50.70
2022-12-23T22:49:08.355Z,50.60
2022-12-23T22:52:01.403Z,50.60
2022-12-23T22:54:54.520Z,50.60
2022-12-23T22:57:47.386Z,50.60
2022-12-23T23:00:41.870Z,50.60
2022-12-23T23:03:35.401Z,50.60
2022-12-23T23:06:30.075Z,50.60
2022-12-23T23:09:23.976Z,50.60
2022-12-23T23:12:17.542Z,50.60
2022-12-23T23:15:11.839Z,50.70
2022-12-23T23:18:07.013Z,50.60
2022-12-23T23:21:00.362Z,50.60
2022-12-23T23:23:53.907Z,50.60
2022-12-23T23:26:47.827Z,50.70
2022-12-23T23:29:41.454Z,50.60
2022-12-23T23:32:34.884Z,50.60
2022-12-23T23:35:29.462Z,50.60
2022-12-23T23:38:22.351Z,50.70
2022-12-23T23:41:20.642Z,50.60
2022-12-23T23:44:17.076Z,50.60
2022-12-23T23:47:10.538Z,50.60
2022-12-23T23:50:03.997Z,50.60
2022-12-23T23:52:58.935Z,50.60
2022-12-23T23:55:52.581Z,50.60
2022-12-23T23:58:45.609Z,50.60
